createdAt,value
2018-07-14T00:49:46.587Z,89.70
2018-07-14T00:50:19.310Z,89.30
2018-07-14T00:50:52.042Z,89.50
2018-07-14T00:51:24.878Z,89.70
2018-07-14T00:51:57.723Z,89.90
2018-07-14T00:52:30.506Z,89.70
2018-07-14T00:53:03.239Z,90.00
2018-07-14T00:53:35.963Z,90.10
2018-07-14T00:54:08.678Z,90.20
2018-07-14T00:54:41.395Z,90.30
2018-07-14T00:55:14.122Z,90.30
2018-07-14T00:55:46.822Z,90.30
2018-07-14T00:56:19.514Z,90.30
2018-07-14T00:56:52.230Z,90.40
2018-07-14T00:57:24.943Z,90.40
2018-07-14T00:57:57.849Z,90.40
2018-07-14T00:58:30.746Z,90.30
2018-07-14T00:59:03.491Z,90.30
2018-07-14T00:59:36.351Z,90.40
2018-07-14T01:00:09.126Z,90.40
2018-07-14T01:00:41.918Z,90.30
2018-07-14T01:01:14.654Z,90.20
2018-07-14T01:01:47.342Z,90.30
2018-07-14T01:02:20.070Z,90.30
2018-07-14T01:02:52.786Z,90.40
2018-07-14T01:03:25.514Z,90.30
2018-07-14T01:03:58.203Z,90.10
2018-07-14T01:04:30.916Z,90.20
2018-07-14T01:05:03.611Z,90.20
2018-07-14T01:05:36.360Z,90.20
2018-07-14T01:06:09.062Z,90.40
2018-07-14T01:06:41.778Z,90.10
2018-07-14T01:07:14.475Z,90.00
2018-07-14T01:07:47.210Z,90.00
2018-07-14T01:08:19.935Z,90.00
2018-07-14T01:08:52.631Z,90.00
2018-07-14T01:09:25.323Z,90.00
2018-07-14T01:09:58.039Z,90.00
2018-07-14T01:10:30.791Z,90.10
2018-07-14T01:11:03.575Z,90.00
2018-07-14T01:11:36.310Z,90.00
2018-07-14T01:12:09.030Z,89.80
2018-07-14T01:12:41.764Z,90.00
2018-07-14T01:13:14.478Z,89.90
2018-07-14T01:13:47.171Z,89.90
2018-07-14T01:14:52.554Z,89.50
2018-07-14T01:15:25.254Z,89.60
2018-07-14T01:15:57.983Z,89.70
2018-07-14T01:16:30.738Z,89.70
2018-07-14T01:17:03.535Z,89.50
2018-07-14T01:17:36.289Z,89.50
2018-07-14T01:18:08.979Z,89.60
2018-07-14T01:18:41.678Z,89.80
2018-07-14T01:19:14.376Z,89.50
2018-07-14T01:19:47.331Z,89.40
2018-07-14T01:20:20.039Z,89.30
2018-07-14T01:20:52.775Z,89.40
2018-07-14T01:21:25.477Z,89.50
2018-07-14T01:21:58.234Z,89.00
2018-07-14T01:22:30.930Z,89.70
2018-07-14T01:23:03.642Z,88.80
2018-07-14T01:23:36.339Z,88.90
2018-07-14T01:24:09.096Z,88.80
2018-07-14T01:24:41.815Z,88.80
2018-07-14T01:25:14.591Z,88.60
2018-07-14T01:25:47.314Z,88.70
2018-07-14T01:26:20.050Z,88.60
2018-07-14T01:26:52.782Z,88.70
2018-07-14T01:27:25.595Z,88.70
2018-07-14T01:27:58.334Z,88.50
2018-07-14T01:28:31.020Z,88.90
2018-07-14T01:29:03.746Z,89.00
2018-07-14T01:29:36.467Z,88.90
2018-07-14T01:30:09.726Z,88.90
2018-07-14T01:30:42.458Z,88.90
2018-07-14T01:31:15.142Z,88.80
2018-07-14T01:31:47.863Z,88.60
2018-07-14T01:32:20.715Z,88.70
2018-07-14T01:32:53.450Z,88.80
2018-07-14T01:33:26.199Z,88.80
2018-07-14T01:33:58.934Z,88.80
2018-07-14T01:34:31.731Z,89.00
2018-07-14T01:35:05.202Z,88.90
2018-07-14T01:35:37.918Z,88.40
2018-07-14T01:36:10.640Z,88.90
2018-07-14T01:36:43.386Z,89.00
2018-07-14T01:37:16.122Z,89.20
2018-07-14T01:37:48.862Z,89.10
2018-07-14T01:38:21.590Z,89.20
2018-07-14T01:38:54.310Z,89.20
2018-07-14T01:39:27.026Z,89.10
2018-07-14T01:39:59.706Z,89.10
2018-07-14T01:40:32.481Z,89.00
2018-07-14T01:41:05.182Z,88.70
2018-07-14T01:41:37.870Z,88.60
2018-07-14T01:42:10.654Z,88.30
2018-07-14T01:42:43.375Z,88.50
2018-07-14T01:43:16.086Z,88.60
2018-07-14T01:43:49.477Z,88.40
2018-07-14T01:44:22.198Z,88.20
2018-07-14T01:44:54.923Z,88.00
2018-07-14T01:45:27.674Z,87.80
2018-07-14T01:46:00.375Z,87.90
2018-07-14T01:46:33.092Z,88.10
2018-07-14T01:47:05.808Z,88.50
2018-07-14T01:47:38.595Z,87.80
2018-07-14T01:48:11.294Z,87.50
2018-07-14T01:48:43.987Z,87.30
2018-07-14T01:49:17.023Z,87.20
2018-07-14T01:49:49.734Z,87.00
2018-07-14T01:50:22.471Z,86.90
2018-07-14T01:50:55.238Z,87.00
2018-07-14T01:51:27.994Z,87.20
2018-07-14T01:52:00.763Z,87.30
2018-07-14T01:52:33.459Z,87.20
2018-07-14T01:53:06.383Z,87.40
2018-07-14T01:53:39.086Z,87.30
2018-07-14T01:54:11.833Z,87.50
2018-07-14T01:54:44.570Z,87.40
2018-07-14T01:55:17.265Z,87.30
2018-07-14T01:55:50.037Z,87.10
2018-07-14T01:56:22.750Z,87.10
2018-07-14T01:56:55.735Z,87.30
2018-07-14T01:57:28.450Z,87.40
2018-07-14T01:58:01.154Z,87.50
2018-07-14T01:58:33.862Z,87.50
2018-07-14T01:59:06.571Z,87.70
2018-07-14T01:59:39.338Z,87.80
2018-07-14T02:00:12.112Z,87.80
2018-07-14T02:00:44.817Z,87.90
2018-07-14T02:01:17.534Z,87.70
2018-07-14T02:01:50.255Z,87.80
2018-07-14T02:02:22.999Z,88.00
2018-07-14T02:02:55.806Z,88.00
2018-07-14T02:03:28.546Z,87.80
2018-07-14T02:04:33.911Z,87.80
2018-07-14T02:05:07.002Z,87.80
2018-07-14T02:05:39.755Z,87.70
2018-07-14T02:06:12.463Z,87.70
2018-07-14T02:06:45.182Z,87.70
2018-07-14T02:07:17.927Z,87.70
2018-07-14T02:07:50.840Z,88.00
2018-07-14T02:08:23.554Z,88.20
2018-07-14T02:08:56.286Z,88.30
2018-07-14T02:09:28.993Z,88.40
2018-07-14T02:10:01.707Z,88.50
2018-07-14T02:10:34.450Z,88.70
2018-07-14T02:11:07.254Z,88.80
2018-07-14T02:11:39.999Z,88.80
2018-07-14T02:12:12.710Z,88.80
2018-07-14T02:12:45.402Z,88.80
2018-07-14T02:13:18.138Z,89.50
2018-07-14T02:13:50.870Z,88.80
2018-07-14T02:14:23.598Z,89.00
2018-07-14T02:14:56.338Z,88.90
2018-07-14T02:15:29.086Z,89.00
2018-07-14T02:16:01.786Z,88.90
2018-07-14T02:16:34.510Z,89.00
2018-07-14T02:17:07.867Z,89.00
2018-07-14T02:17:40.591Z,89.00
2018-07-14T02:18:13.302Z,89.10
2018-07-14T02:18:46.031Z,89.10
2018-07-14T02:19:18.735Z,89.80
2018-07-14T02:19:51.455Z,89.10
2018-07-14T02:20:24.199Z,89.40
2018-07-14T02:20:56.926Z,89.40
2018-07-14T02:21:29.719Z,89.20
2018-07-14T02:22:02.443Z,89.10
2018-07-14T02:22:35.170Z,89.10
2018-07-14T02:23:07.898Z,89.10
2018-07-14T02:23:40.662Z,88.90
2018-07-14T02:24:13.358Z,88.90
2018-07-14T02:24:46.059Z,88.90
2018-07-14T02:25:18.775Z,88.80
2018-07-14T02:25:51.486Z,88.80
2018-07-14T02:26:24.162Z,88.80
2018-07-14T02:26:56.872Z,88.80
2018-07-14T02:27:29.592Z,88.80
2018-07-14T02:28:02.334Z,88.80
2018-07-14T02:28:35.033Z,88.70
2018-07-14T02:29:07.839Z,88.70
2018-07-14T02:29:40.558Z,88.60
2018-07-14T02:30:13.279Z,88.50
2018-07-14T02:30:45.978Z,88.60
2018-07-14T02:31:18.731Z,88.60
2018-07-14T02:31:51.438Z,88.70
2018-07-14T02:32:24.170Z,88.70
2018-07-14T02:32:56.879Z,88.70
2018-07-14T02:33:29.570Z,88.70
2018-07-14T02:34:02.243Z,88.30
2018-07-14T02:34:34.966Z,88.70
2018-07-14T02:35:07.678Z,88.70
2018-07-14T02:35:40.386Z,88.70
2018-07-14T02:36:13.091Z,88.70
2018-07-14T02:36:45.815Z,88.70
2018-07-14T02:37:18.558Z,88.70
2018-07-14T02:37:51.298Z,88.60
2018-07-14T02:38:24.034Z,88.70
2018-07-14T02:38:56.747Z,88.80
2018-07-14T02:39:29.443Z,88.80
2018-07-14T02:40:02.123Z,88.60
2018-07-14T02:40:34.835Z,88.80
2018-07-14T02:41:07.539Z,88.80
2018-07-14T02:41:40.276Z,88.90
2018-07-14T02:42:12.975Z,88.80
2018-07-14T02:42:45.670Z,88.80
2018-07-14T02:43:18.381Z,88.80
2018-07-14T02:43:51.123Z,88.80
2018-07-14T02:44:23.819Z,88.90
2018-07-14T02:44:56.596Z,88.80
2018-07-14T02:45:29.314Z,88.80
2018-07-14T02:46:02.050Z,88.80
2018-07-14T02:46:34.844Z,88.80
2018-07-14T02:47:07.575Z,88.80
2018-07-14T02:47:40.279Z,88.80
2018-07-14T02:48:12.986Z,88.80
2018-07-14T02:48:45.702Z,88.80
2018-07-14T02:49:18.627Z,89.30
2018-07-14T02:49:51.307Z,88.90
2018-07-14T02:50:24.019Z,88.90
2018-07-14T02:50:56.734Z,88.90
2018-07-14T02:51:29.451Z,89.00
2018-07-14T02:52:02.172Z,89.10
2018-07-14T02:52:34.863Z,89.20
2018-07-14T02:53:07.571Z,89.20
2018-07-14T02:53:40.298Z,89.30
2018-07-14T02:54:13.023Z,89.30
2018-07-14T02:54:45.962Z,89.30
2018-07-14T02:55:18.662Z,89.30
2018-07-14T02:55:51.366Z,89.20
2018-07-14T02:56:24.082Z,89.10
2018-07-14T02:56:56.802Z,89.10
2018-07-14T02:57:29.491Z,89.10
2018-07-14T02:58:02.170Z,89.10
2018-07-14T02:58:34.890Z,89.00
2018-07-14T02:59:07.582Z,89.00
2018-07-14T02:59:40.313Z,89.10
2018-07-14T03:00:13.074Z,89.20
2018-07-14T03:00:45.802Z,89.30
2018-07-14T03:01:18.515Z,89.40
2018-07-14T03:01:51.226Z,89.40
2018-07-14T03:02:23.928Z,90.00
2018-07-14T03:02:56.686Z,89.60
2018-07-14T03:03:29.395Z,89.60
2018-07-14T03:04:02.088Z,89.60
2018-07-14T03:04:34.786Z,89.60
2018-07-14T03:05:07.537Z,89.50
2018-07-14T03:05:40.268Z,89.40
2018-07-14T03:06:12.990Z,89.50
2018-07-14T03:06:45.679Z,89.40
2018-07-14T03:07:18.419Z,89.40
2018-07-14T03:07:51.118Z,89.50
2018-07-14T03:08:23.778Z,89.50
2018-07-14T03:08:56.482Z,89.50
2018-07-14T03:09:29.184Z,89.50
2018-07-14T03:10:01.919Z,89.50
2018-07-14T03:10:34.638Z,89.60
2018-07-14T03:11:07.370Z,89.60
2018-07-14T03:11:40.110Z,89.50
2018-07-14T03:12:45.705Z,89.50
2018-07-14T03:13:18.376Z,89.40
2018-07-14T03:13:51.115Z,89.40
2018-07-14T03:14:23.875Z,89.40
2018-07-14T03:14:56.591Z,89.40
2018-07-14T03:15:29.319Z,89.40
2018-07-14T03:16:02.069Z,89.40
2018-07-14T03:16:34.816Z,89.40
2018-07-14T03:17:07.514Z,89.50
2018-07-14T03:17:40.226Z,89.50
2018-07-14T03:18:12.917Z,89.40
2018-07-14T03:18:45.598Z,89.40
2018-07-14T03:19:18.378Z,89.50
2018-07-14T03:19:51.022Z,89.50
2018-07-14T03:20:23.731Z,89.50
2018-07-14T03:20:56.455Z,89.60
2018-07-14T03:21:29.162Z,89.50
2018-07-14T03:22:01.904Z,89.60
2018-07-14T03:22:34.622Z,89.60
2018-07-14T03:23:07.502Z,89.50
2018-07-14T03:23:40.224Z,89.80
2018-07-14T03:24:12.958Z,89.70
2018-07-14T03:24:45.634Z,89.70
2018-07-14T03:25:18.339Z,89.70
2018-07-14T03:25:51.069Z,89.70
2018-07-14T03:26:23.898Z,90.00
2018-07-14T03:26:56.618Z,89.70
2018-07-14T03:27:29.386Z,89.60
2018-07-14T03:28:02.059Z,89.30
2018-07-14T03:28:34.775Z,89.30
2018-07-14T03:29:07.484Z,89.40
2018-07-14T03:29:40.246Z,89.50
2018-07-14T03:30:12.950Z,89.60
2018-07-14T03:30:45.634Z,89.40
2018-07-14T03:31:18.350Z,89.30
2018-07-14T03:31:51.078Z,89.00
2018-07-14T03:32:23.833Z,89.00
2018-07-14T03:32:56.558Z,88.80
2018-07-14T03:33:29.235Z,88.60
2018-07-14T03:34:01.950Z,88.40
2018-07-14T03:34:34.642Z,88.30
2018-07-14T03:35:07.351Z,88.30
2018-07-14T03:35:40.064Z,88.20
2018-07-14T03:36:12.766Z,88.30
2018-07-14T03:36:45.483Z,88.40
2018-07-14T03:37:18.186Z,88.30
2018-07-14T03:37:50.926Z,88.20
2018-07-14T03:38:23.677Z,88.10
2018-07-14T03:38:56.358Z,87.80
2018-07-14T03:39:29.054Z,87.80
2018-07-14T03:40:01.739Z,87.60
2018-07-14T03:40:34.482Z,87.50
2018-07-14T03:41:07.739Z,87.60
2018-07-14T03:41:40.434Z,87.60
2018-07-14T03:42:13.146Z,87.50
2018-07-14T03:42:45.826Z,87.40
2018-07-14T03:43:18.559Z,87.50
2018-07-14T03:43:51.314Z,87.90
2018-07-14T03:44:23.989Z,87.90
2018-07-14T03:44:56.699Z,87.80
2018-07-14T03:45:29.458Z,87.70
2018-07-14T03:46:02.169Z,87.90
2018-07-14T03:46:34.902Z,88.10
2018-07-14T03:47:07.635Z,88.30
2018-07-14T03:47:40.342Z,88.20
2018-07-14T03:48:13.052Z,88.20
2018-07-14T03:48:45.742Z,87.70
2018-07-14T03:49:18.498Z,87.60
2018-07-14T03:49:51.215Z,87.50
2018-07-14T03:50:23.940Z,87.90
2018-07-14T03:50:56.682Z,88.10
2018-07-14T03:51:29.396Z,88.10
2018-07-14T03:52:02.115Z,88.30
2018-07-14T03:52:35.235Z,88.30
2018-07-14T03:53:07.979Z,88.30
2018-07-14T03:53:40.659Z,88.30
2018-07-14T03:54:13.373Z,88.30
2018-07-14T03:54:46.086Z,88.10
2018-07-14T03:55:18.846Z,87.90
2018-07-14T03:55:51.571Z,87.80
2018-07-14T03:56:24.296Z,87.50
2018-07-14T03:56:57.043Z,87.30
2018-07-14T03:57:29.742Z,87.10
2018-07-14T03:58:02.471Z,86.90
2018-07-14T03:58:35.183Z,86.90
2018-07-14T03:59:07.891Z,86.80
2018-07-14T03:59:40.634Z,87.00
2018-07-14T04:00:13.397Z,87.10
2018-07-14T04:00:46.114Z,87.20
2018-07-14T04:01:18.834Z,87.00
2018-07-14T04:02:24.169Z,87.00
2018-07-14T04:03:29.490Z,87.10
2018-07-14T04:04:02.182Z,87.20
2018-07-14T04:04:34.872Z,87.20
2018-07-14T04:05:07.550Z,87.20
2018-07-14T04:05:40.251Z,87.00
2018-07-14T04:06:13.018Z,87.00
2018-07-14T04:06:45.711Z,87.00
2018-07-14T04:07:18.691Z,87.00
2018-07-14T04:07:51.418Z,87.50
2018-07-14T04:08:24.130Z,86.90
2018-07-14T04:08:56.819Z,86.90
2018-07-14T04:09:29.511Z,87.70
2018-07-14T04:10:02.461Z,87.20
2018-07-14T04:10:35.169Z,87.10
2018-07-14T04:11:40.499Z,87.10
2018-07-14T04:12:13.223Z,87.10
2018-07-14T04:12:45.928Z,87.30
2018-07-14T04:13:18.646Z,87.30
2018-07-14T04:13:51.378Z,87.10
2018-07-14T04:14:24.086Z,87.20
2018-07-14T04:14:56.783Z,87.10
2018-07-14T04:15:29.474Z,87.10
2018-07-14T04:16:02.354Z,87.10
2018-07-14T04:16:35.099Z,87.10
2018-07-14T04:17:07.806Z,86.90
2018-07-14T04:17:40.522Z,86.90
2018-07-14T04:18:13.218Z,86.80
2018-07-14T04:18:45.931Z,86.80
2018-07-14T04:19:18.698Z,87.10
2018-07-14T04:19:51.382Z,87.20
2018-07-14T04:20:24.066Z,87.20
2018-07-14T04:20:56.795Z,87.00
2018-07-14T04:21:29.489Z,86.90
2018-07-14T04:22:02.214Z,87.00
2018-07-14T04:22:34.922Z,86.80
2018-07-14T04:23:07.610Z,86.50
2018-07-14T04:23:40.315Z,86.50
2018-07-14T04:24:13.021Z,86.50
2018-07-14T04:24:45.742Z,86.40
2018-07-14T04:25:18.422Z,86.10
2018-07-14T04:25:51.098Z,86.10
2018-07-14T04:26:23.799Z,86.20
2018-07-14T04:26:56.499Z,86.80
2018-07-14T04:27:29.223Z,87.00
2018-07-14T04:28:02.045Z,87.10
2018-07-14T04:28:34.730Z,87.30
2018-07-14T04:29:07.542Z,87.60
2018-07-14T04:29:40.240Z,87.60
2018-07-14T04:30:12.963Z,87.10
2018-07-14T04:30:45.698Z,86.80
2018-07-14T04:31:18.442Z,86.70
2018-07-14T04:31:51.288Z,86.50
2018-07-14T04:32:24.015Z,86.50
2018-07-14T04:32:56.814Z,86.70
2018-07-14T04:34:02.159Z,86.70
2018-07-14T04:34:34.887Z,86.70
2018-07-14T04:35:07.590Z,86.50
2018-07-14T04:35:40.299Z,86.30
2018-07-14T04:36:13.006Z,86.20
2018-07-14T04:36:45.714Z,86.10
2018-07-14T04:37:51.042Z,86.10
2018-07-14T04:38:23.818Z,86.10
2018-07-14T04:38:56.503Z,86.20
2018-07-14T04:39:29.230Z,86.10
2018-07-14T04:40:01.939Z,86.20
2018-07-14T04:40:34.646Z,86.20
2018-07-14T04:41:07.355Z,86.30
2018-07-14T04:41:40.079Z,86.30
2018-07-14T04:42:45.423Z,86.50
2018-07-14T04:43:18.178Z,86.50
2018-07-14T04:43:50.906Z,86.50
2018-07-14T04:44:23.606Z,86.20
2018-07-14T04:44:56.318Z,86.00
2018-07-14T04:45:29.014Z,85.90
2018-07-14T04:46:01.726Z,85.90
2018-07-14T04:46:34.430Z,85.90
2018-07-14T04:47:07.122Z,85.80
2018-07-14T04:47:39.839Z,85.90
2018-07-14T04:48:12.546Z,86.10
2018-07-14T04:48:45.283Z,86.20
2018-07-14T04:49:18.102Z,86.10
2018-07-14T04:49:50.798Z,86.60
2018-07-14T04:50:23.518Z,86.00
2018-07-14T04:50:56.455Z,85.90
2018-07-14T04:51:29.174Z,86.00
2018-07-14T04:52:01.919Z,86.00
2018-07-14T04:52:34.690Z,85.90
2018-07-14T04:53:07.388Z,85.90
2018-07-14T04:53:40.062Z,85.60
2018-07-14T04:54:12.787Z,85.60
2018-07-14T04:54:45.494Z,85.70
2018-07-14T04:55:18.287Z,85.70
2018-07-14T04:55:50.997Z,85.80
2018-07-14T04:56:23.694Z,85.60
2018-07-14T04:56:56.442Z,85.50
2018-07-14T04:57:29.166Z,85.50
2018-07-14T04:58:01.866Z,85.30
2018-07-14T04:59:07.259Z,85.10
2018-07-14T04:59:39.962Z,85.10
2018-07-14T05:00:12.695Z,85.30
2018-07-14T05:00:45.398Z,85.20
2018-07-14T05:01:18.117Z,85.10
2018-07-14T05:01:50.822Z,85.30
2018-07-14T05:02:23.542Z,85.00
2018-07-14T05:03:28.898Z,84.80
2018-07-14T05:04:01.595Z,84.90
2018-07-14T05:04:34.318Z,85.10
2018-07-14T05:05:07.058Z,84.90
2018-07-14T05:05:39.792Z,84.70
2018-07-14T05:06:12.501Z,84.60
2018-07-14T05:06:45.211Z,84.70
2018-07-14T05:07:17.919Z,84.70
2018-07-14T05:07:50.605Z,84.70
2018-07-14T05:08:23.598Z,84.50
2018-07-14T05:08:56.362Z,84.70
2018-07-14T05:09:29.102Z,83.80
2018-07-14T05:10:01.831Z,83.30
2018-07-14T05:10:34.542Z,82.90
2018-07-14T05:11:07.481Z,83.00
2018-07-14T05:11:40.186Z,82.60
2018-07-14T05:12:12.906Z,82.30
2018-07-14T05:12:45.622Z,82.10
2018-07-14T05:13:18.583Z,82.00
2018-07-14T05:13:51.315Z,81.90
2018-07-14T05:14:24.055Z,82.00
2018-07-14T05:14:56.758Z,82.00
2018-07-14T05:15:29.484Z,82.00
2018-07-14T05:16:02.167Z,82.00
2018-07-14T05:16:34.925Z,81.90
2018-07-14T05:17:07.630Z,81.70
2018-07-14T05:17:40.303Z,81.50
2018-07-14T05:18:12.983Z,81.70
2018-07-14T05:18:45.687Z,81.20
2018-07-14T05:19:18.551Z,80.60
2018-07-14T05:19:51.246Z,80.30
2018-07-14T05:20:23.991Z,80.30
2018-07-14T05:20:56.695Z,80.00
2018-07-14T05:21:29.456Z,79.90
2018-07-14T05:22:02.151Z,80.60
2018-07-14T05:22:34.867Z,79.70
2018-07-14T05:23:07.601Z,79.70
2018-07-14T05:23:40.298Z,80.00
2018-07-14T05:24:13.023Z,80.00
2018-07-14T05:24:45.734Z,79.90
2018-07-14T05:25:18.550Z,80.50
2018-07-14T05:25:51.247Z,79.50
2018-07-14T05:26:23.939Z,79.40
2018-07-14T05:26:56.706Z,80.00
2018-07-14T05:27:29.490Z,79.10
2018-07-14T05:28:02.204Z,78.80
2018-07-14T05:28:34.892Z,78.30
2018-07-14T05:29:07.607Z,78.00
2018-07-14T05:29:40.315Z,77.80
2018-07-14T05:30:13.027Z,77.80
2018-07-14T05:30:45.767Z,77.40
2018-07-14T05:31:18.979Z,77.50
2018-07-14T05:31:51.703Z,77.40
2018-07-14T05:32:24.435Z,77.00
2018-07-14T05:32:57.195Z,77.10
2018-07-14T05:33:29.882Z,78.00
2018-07-14T05:34:02.614Z,77.80
2018-07-14T05:34:35.502Z,78.30
2018-07-14T05:35:08.260Z,77.80
2018-07-14T05:35:40.970Z,78.00
2018-07-14T05:36:13.659Z,77.20
2018-07-14T05:36:46.477Z,76.80
2018-07-14T05:37:19.232Z,75.10
2018-07-14T05:37:52.091Z,74.60
2018-07-14T05:38:24.859Z,74.50
2018-07-14T05:38:57.634Z,74.60
2018-07-14T05:39:30.354Z,74.90
2018-07-14T05:40:03.137Z,74.80
2018-07-14T05:40:35.842Z,74.70
2018-07-14T05:41:08.534Z,74.80
2018-07-14T05:41:41.231Z,74.80
2018-07-14T05:42:13.918Z,74.90
2018-07-14T05:42:46.647Z,75.20
2018-07-14T05:43:19.412Z,74.80
2018-07-14T05:43:52.137Z,74.60
2018-07-14T05:44:24.818Z,74.10
2018-07-14T05:44:57.786Z,73.90
2018-07-14T05:45:30.487Z,74.50
2018-07-14T05:46:03.265Z,74.50
2018-07-14T05:46:35.978Z,73.90
2018-07-14T05:47:08.707Z,73.10
2018-07-14T05:47:41.422Z,73.00
2018-07-14T05:48:14.134Z,72.70
2018-07-14T05:48:46.982Z,72.70
2018-07-14T05:49:19.762Z,72.40
2018-07-14T05:49:52.509Z,72.60
2018-07-14T05:50:25.231Z,73.00
2018-07-14T05:50:57.970Z,72.80
2018-07-14T05:51:30.870Z,73.20
2018-07-14T05:52:03.647Z,73.10
2018-07-14T05:52:36.334Z,73.30
2018-07-14T05:53:09.038Z,73.60
2018-07-14T05:53:41.774Z,73.50
2018-07-14T05:54:14.482Z,73.50
2018-07-14T05:54:47.231Z,73.30
2018-07-14T05:55:19.950Z,72.90
2018-07-14T05:55:52.647Z,72.90
2018-07-14T05:56:25.355Z,72.30
2018-07-14T05:56:58.079Z,72.90
2018-07-14T05:57:30.811Z,73.00
2018-07-14T05:58:03.610Z,72.80
2018-07-14T05:58:36.331Z,72.40
2018-07-14T05:59:09.040Z,71.60
2018-07-14T05:59:41.770Z,71.70
2018-07-14T06:00:14.567Z,71.20
2018-07-14T06:00:47.319Z,70.10
2018-07-14T06:01:20.027Z,70.60
2018-07-14T06:01:52.790Z,70.70
2018-07-14T06:02:25.532Z,70.10
2018-07-14T06:02:58.282Z,69.90
2018-07-14T06:03:31.026Z,69.60
2018-07-14T06:04:03.878Z,69.50
2018-07-14T06:04:36.614Z,69.30
2018-07-14T06:05:09.364Z,68.90
2018-07-14T06:05:42.122Z,68.90
2018-07-14T06:06:14.882Z,67.90
2018-07-14T06:06:47.606Z,68.00
2018-07-14T06:07:20.378Z,67.90
2018-07-14T06:07:53.094Z,68.70
2018-07-14T06:08:25.816Z,69.70
2018-07-14T06:08:58.542Z,69.80
2018-07-14T06:09:31.303Z,69.50
2018-07-14T06:10:04.089Z,69.60
2018-07-14T06:10:36.807Z,68.80
2018-07-14T06:11:09.546Z,68.80
2018-07-14T06:11:42.311Z,69.50
2018-07-14T06:12:15.019Z,69.20
2018-07-14T06:12:47.775Z,70.00
2018-07-14T06:13:20.522Z,70.40
2018-07-14T06:13:53.221Z,69.60
2018-07-14T06:14:25.995Z,69.50
2018-07-14T06:14:58.691Z,69.70
2018-07-14T06:15:31.406Z,69.60
2018-07-14T06:16:04.130Z,69.20
2018-07-14T06:16:37.026Z,69.00
2018-07-14T06:17:09.773Z,68.80
2018-07-14T06:17:42.530Z,68.40
2018-07-14T06:18:15.278Z,68.00
2018-07-14T06:18:48.051Z,68.20
2018-07-14T06:19:20.877Z,69.00
2018-07-14T06:19:53.598Z,68.70
2018-07-14T06:20:26.293Z,68.70
2018-07-14T06:20:59.042Z,68.60
2018-07-14T06:21:31.778Z,68.50
2018-07-14T06:22:04.546Z,68.00
2018-07-14T06:22:37.286Z,67.70
2018-07-14T06:23:10.007Z,67.10
2018-07-14T06:23:42.754Z,67.30
2018-07-14T06:24:15.654Z,67.20
2018-07-14T06:24:48.357Z,66.60
2018-07-14T06:25:21.090Z,67.20
2018-07-14T06:25:53.815Z,66.70
2018-07-14T06:26:26.535Z,67.00
2018-07-14T06:26:59.262Z,66.80
2018-07-14T06:27:32.003Z,66.60
2018-07-14T06:28:37.490Z,66.10
2018-07-14T06:29:10.242Z,65.90
2018-07-14T06:29:42.952Z,66.00
2018-07-14T06:30:15.667Z,66.80
2018-07-14T06:30:48.375Z,66.20
2018-07-14T06:31:21.086Z,66.30
2018-07-14T06:31:53.807Z,66.50
2018-07-14T06:32:26.519Z,66.50
2018-07-14T06:32:59.259Z,66.30
2018-07-14T06:33:32.000Z,66.90
2018-07-14T06:34:05.244Z,66.70
2018-07-14T06:34:37.950Z,66.50
2018-07-14T06:35:10.647Z,66.90
2018-07-14T06:35:43.375Z,67.20
2018-07-14T06:36:16.063Z,67.20
2018-07-14T06:36:48.786Z,67.90
2018-07-14T06:37:21.523Z,68.50
2018-07-14T06:37:54.274Z,66.70
2018-07-14T06:38:27.090Z,66.10
2018-07-14T06:38:59.763Z,66.00
2018-07-14T06:39:32.493Z,66.00
2018-07-14T06:40:05.290Z,65.40
2018-07-14T06:40:37.986Z,64.90
2018-07-14T06:41:10.738Z,65.10
2018-07-14T06:41:43.467Z,64.80
2018-07-14T06:42:16.195Z,65.20
2018-07-14T06:42:48.910Z,65.00
2018-07-14T06:43:21.607Z,64.60
2018-07-14T06:43:54.359Z,64.90
2018-07-14T06:44:27.078Z,65.00
2018-07-14T06:44:59.811Z,64.90
2018-07-14T06:45:32.564Z,64.90
2018-07-14T06:46:05.662Z,65.30
2018-07-14T06:46:38.375Z,64.90
2018-07-14T06:47:11.082Z,64.90
2018-07-14T06:47:43.812Z,65.00
2018-07-14T06:48:16.570Z,65.20
2018-07-14T06:48:49.287Z,65.30
2018-07-14T06:49:22.055Z,65.30
2018-07-14T06:49:54.726Z,65.30
2018-07-14T06:50:27.438Z,65.30
2018-07-14T06:51:00.174Z,65.20
2018-07-14T06:51:32.923Z,65.50
2018-07-14T06:52:05.859Z,65.80
2018-07-14T06:52:38.584Z,65.90
2018-07-14T06:53:11.290Z,66.10
2018-07-14T06:53:44.017Z,66.00
2018-07-14T06:54:16.789Z,65.50
2018-07-14T06:54:49.557Z,65.60
2018-07-14T06:55:22.490Z,65.90
2018-07-14T06:55:55.201Z,66.00
2018-07-14T06:56:27.922Z,65.80
2018-07-14T06:57:00.650Z,66.20
2018-07-14T06:57:33.354Z,66.50
2018-07-14T06:58:06.371Z,66.30
2018-07-14T06:58:39.087Z,65.90
2018-07-14T06:59:11.822Z,66.00
2018-07-14T07:00:17.244Z,66.40
2018-07-14T07:00:49.967Z,67.20
2018-07-14T07:01:22.679Z,67.20
2018-07-14T07:01:55.367Z,66.20
2018-07-14T07:02:28.086Z,66.60
2018-07-14T07:03:00.838Z,66.70
2018-07-14T07:03:33.534Z,67.20
2018-07-14T07:04:06.258Z,66.70
2018-07-14T07:04:39.046Z,66.20
2018-07-14T07:05:11.729Z,65.90
2018-07-14T07:05:44.483Z,65.50
2018-07-14T07:06:17.174Z,65.00
2018-07-14T07:06:49.888Z,65.20
2018-07-14T07:07:22.613Z,64.60
2018-07-14T07:07:55.306Z,64.70
2018-07-14T07:08:28.010Z,64.90
2018-07-14T07:09:00.716Z,65.10
2018-07-14T07:09:33.434Z,66.10
2018-07-14T07:10:06.170Z,65.90
2018-07-14T07:10:38.874Z,65.50
2018-07-14T07:11:12.442Z,66.00
2018-07-14T07:11:45.235Z,66.90
2018-07-14T07:12:18.030Z,66.00
2018-07-14T07:12:50.727Z,65.70
2018-07-14T07:13:23.472Z,65.30
2018-07-14T07:13:56.151Z,65.50
2018-07-14T07:14:28.891Z,65.70
2018-07-14T07:15:01.600Z,65.10
2018-07-14T07:15:34.327Z,64.50
2018-07-14T07:16:07.387Z,64.40
2018-07-14T07:16:40.278Z,64.30
2018-07-14T07:17:12.969Z,64.20
2018-07-14T07:17:45.706Z,64.50
2018-07-14T07:18:18.406Z,64.30
2018-07-14T07:18:51.119Z,64.30
2018-07-14T07:19:23.810Z,64.30
2018-07-14T07:19:56.538Z,64.40
2018-07-14T07:20:29.296Z,65.20
2018-07-14T07:21:02.035Z,64.50
2018-07-14T07:21:34.783Z,65.10
2018-07-14T07:22:07.534Z,65.00
2018-07-14T07:22:40.274Z,65.20
2018-07-14T07:23:12.987Z,64.90
2018-07-14T07:23:45.683Z,65.00
2018-07-14T07:24:18.922Z,65.00
2018-07-14T07:24:51.614Z,64.70
2018-07-14T07:25:24.347Z,64.10
2018-07-14T07:25:57.215Z,64.70
2018-07-14T07:26:29.910Z,64.80
2018-07-14T07:27:02.651Z,64.40
2018-07-14T07:27:35.367Z,64.60
2018-07-14T07:28:08.114Z,64.30
2018-07-14T07:28:40.867Z,64.30
2018-07-14T07:29:13.602Z,63.80
2018-07-14T07:29:46.323Z,63.80
2018-07-14T07:30:19.039Z,64.60
2018-07-14T07:30:51.743Z,64.60
2018-07-14T07:31:24.450Z,65.80
2018-07-14T07:31:57.170Z,66.10
2018-07-14T07:32:29.878Z,64.50
2018-07-14T07:33:03.107Z,65.80
2018-07-14T07:33:35.798Z,66.30
2018-07-14T07:34:08.534Z,65.90
2018-07-14T07:34:41.372Z,65.20
2018-07-14T07:35:13.971Z,65.00
2018-07-14T07:35:46.707Z,65.70
2018-07-14T07:36:19.499Z,65.50
2018-07-14T07:36:52.378Z,63.80
2018-07-14T07:37:25.132Z,63.70
2018-07-14T07:37:57.874Z,63.90
2018-07-14T07:38:30.666Z,64.60
2018-07-14T07:39:04.391Z,64.60
2018-07-14T07:39:37.131Z,64.50
2018-07-14T07:40:09.893Z,64.30
2018-07-14T07:40:43.016Z,64.10
2018-07-14T07:41:15.723Z,64.40
2018-07-14T07:41:48.438Z,64.10
2018-07-14T07:42:21.149Z,64.20
2018-07-14T07:42:53.878Z,64.30
2018-07-14T07:43:26.632Z,64.40
2018-07-14T07:43:59.378Z,64.90
2018-07-14T07:44:32.075Z,64.90
2018-07-14T07:45:05.287Z,64.30
2018-07-14T07:45:38.002Z,64.60
2018-07-14T07:46:10.707Z,64.30
2018-07-14T07:46:43.454Z,65.30
2018-07-14T07:47:16.195Z,64.70
2018-07-14T07:47:48.927Z,65.00
2018-07-14T07:48:21.630Z,65.00
2018-07-14T07:48:54.326Z,65.00
2018-07-14T07:49:27.122Z,65.80
2018-07-14T07:49:59.838Z,64.80
2018-07-14T07:50:32.639Z,63.70
2018-07-14T07:51:05.389Z,64.50
2018-07-14T07:51:38.134Z,64.20
2018-07-14T07:52:10.826Z,63.60
2018-07-14T07:52:43.546Z,62.60
2018-07-14T07:53:16.266Z,63.00
2018-07-14T07:53:49.002Z,64.00
2018-07-14T07:54:21.706Z,63.50
2018-07-14T07:54:54.427Z,65.10
2018-07-14T07:55:27.162Z,65.70
2018-07-14T07:55:59.864Z,64.10
2018-07-14T07:56:32.574Z,64.20
2018-07-14T07:57:05.563Z,64.40
2018-07-14T07:57:38.255Z,65.60
2018-07-14T07:58:10.943Z,64.40